KHV350 WMKK-WMKL
Flight info
| Callsign | KHV350 |
|---|---|
| Flight time | 0h 46m |
| Altitude | 28000 |
| Route | ATIMU2F ATIMU Y506 VPG W525 KAPKO KAPKO1E |
| Aircraft | A321/M-SDE3FGHIRWY/LB1 |
Departure
| Time | 2026-04-15 10:42 |
|---|---|
| Airport | Kuala Lumpur International Airport (WMKK) |
Arrival
| Time | 2026-04-15 11:29 |
|---|---|
| Airport | Langkawi International Airport (WMKL) |
| Time | Latitude | Longitude | Altitude | Speed | Heading |
|---|---|---|---|---|---|
| 2026-04-15 10:18 | 2.73736 | 101.68650 | 75 ft | 0 kts | 325° |
| 2026-04-15 10:25 | 2.73734 | 101.68652 | 76 ft | 2 kts | 325° |
| 2026-04-15 10:25 | 2.73721 | 101.68660 | 76 ft | 2 kts | 325° |
| 2026-04-15 10:25 | 2.73705 | 101.68671 | 76 ft | 2 kts | 325° |
| 2026-04-15 10:26 | 2.73693 | 101.68681 | 76 ft | 2 kts | 325° |
| 2026-04-15 10:26 | 2.73685 | 101.68686 | 76 ft | 2 kts | 325° |
| 2026-04-15 10:26 | 2.73672 | 101.68694 | 76 ft | 2 kts | 325° |
| 2026-04-15 10:26 | 2.73655 | 101.68705 | 76 ft | 2 kts | 355° |
| 2026-04-15 10:27 | 2.73640 | 101.68703 | 76 ft | 2 kts | 28° |
| 2026-04-15 10:27 | 2.73632 | 101.68697 | 76 ft | 1 kts | 50° |
| 2026-04-15 10:27 | 2.73627 | 101.68690 | 75 ft | 1 kts | 58° |
| 2026-04-15 10:27 | 2.73627 | 101.68689 | 75 ft | 0 kts | 57° |
| 2026-04-15 10:29 | 2.73633 | 101.68698 | 75 ft | 3 kts | 56° |
| 2026-04-15 10:29 | 2.73643 | 101.68713 | 75 ft | 4 kts | 56° |
| 2026-04-15 10:29 | 2.73665 | 101.68745 | 75 ft | 7 kts | 56° |
| 2026-04-15 10:30 | 2.73699 | 101.68816 | 75 ft | 9 kts | 95° |
| 2026-04-15 10:30 | 2.73657 | 101.68858 | 75 ft | 8 kts | 174° |
| 2026-04-15 10:30 | 2.73611 | 101.68829 | 76 ft | 7 kts | 224° |
| 2026-04-15 10:30 | 2.73588 | 101.68801 | 75 ft | 7 kts | 233° |
| 2026-04-15 10:31 | 2.73555 | 101.68754 | 75 ft | 8 kts | 236° |
| 2026-04-15 10:31 | 2.73520 | 101.68701 | 75 ft | 9 kts | 236° |
| 2026-04-15 10:31 | 2.73468 | 101.68624 | 75 ft | 10 kts | 235° |
| 2026-04-15 10:31 | 2.73426 | 101.68563 | 75 ft | 11 kts | 236° |
| 2026-04-15 10:32 | 2.73397 | 101.68519 | 75 ft | 11 kts | 236° |
| 2026-04-15 10:32 | 2.73364 | 101.68471 | 75 ft | 8 kts | 235° |
| 2026-04-15 10:32 | 2.73329 | 101.68439 | 75 ft | 6 kts | 204° |
| 2026-04-15 10:32 | 2.73283 | 101.68446 | 75 ft | 7 kts | 150° |
| 2026-04-15 10:33 | 2.73238 | 101.68475 | 75 ft | 8 kts | 146° |
| 2026-04-15 10:33 | 2.73173 | 101.68520 | 75 ft | 9 kts | 146° |
| 2026-04-15 10:33 | 2.73117 | 101.68558 | 75 ft | 9 kts | 147° |
| 2026-04-15 10:33 | 2.73057 | 101.68597 | 75 ft | 10 kts | 146° |
| 2026-04-15 10:34 | 2.72994 | 101.68639 | 75 ft | 11 kts | 146° |
| 2026-04-15 10:34 | 2.72929 | 101.68684 | 75 ft | 11 kts | 146° |
| 2026-04-15 10:34 | 2.72883 | 101.68715 | 75 ft | 11 kts | 146° |
| 2026-04-15 10:34 | 2.72813 | 101.68761 | 75 ft | 12 kts | 146° |
| 2026-04-15 10:35 | 2.72741 | 101.68810 | 75 ft | 12 kts | 146° |
| 2026-04-15 10:35 | 2.72641 | 101.68876 | 75 ft | 12 kts | 146° |
| 2026-04-15 10:35 | 2.72565 | 101.68927 | 75 ft | 13 kts | 146° |
| 2026-04-15 10:35 | 2.72513 | 101.68961 | 75 ft | 13 kts | 146° |
| 2026-04-15 10:36 | 2.72436 | 101.69014 | 75 ft | 13 kts | 146° |
| 2026-04-15 10:36 | 2.72357 | 101.69067 | 75 ft | 13 kts | 146° |
| 2026-04-15 10:36 | 2.72250 | 101.69138 | 75 ft | 13 kts | 146° |
| 2026-04-15 10:36 | 2.72196 | 101.69174 | 75 ft | 14 kts | 146° |
| 2026-04-15 10:37 | 2.72106 | 101.69235 | 75 ft | 15 kts | 146° |
| 2026-04-15 10:37 | 2.71985 | 101.69315 | 75 ft | 15 kts | 146° |
| 2026-04-15 10:37 | 2.71925 | 101.69356 | 75 ft | 15 kts | 146° |
| 2026-04-15 10:37 | 2.71833 | 101.69379 | 75 ft | 10 kts | 215° |
| 2026-04-15 10:38 | 2.71799 | 101.69348 | 75 ft | 9 kts | 210° |
| 2026-04-15 10:38 | 2.71735 | 101.69357 | 75 ft | 10 kts | 150° |
| 2026-04-15 10:38 | 2.71653 | 101.69411 | 75 ft | 11 kts | 146° |
| 2026-04-15 10:38 | 2.71600 | 101.69447 | 75 ft | 15 kts | 145° |
| 2026-04-15 10:39 | 2.71478 | 101.69530 | 75 ft | 15 kts | 146° |
| 2026-04-15 10:39 | 2.71417 | 101.69570 | 75 ft | 15 kts | 146° |
| 2026-04-15 10:39 | 2.71298 | 101.69651 | 75 ft | 15 kts | 146° |
| 2026-04-15 10:39 | 2.71210 | 101.69710 | 75 ft | 15 kts | 146° |
| 2026-04-15 10:40 | 2.71150 | 101.69751 | 75 ft | 15 kts | 146° |
| 2026-04-15 10:40 | 2.71084 | 101.69794 | 75 ft | 9 kts | 154° |
| 2026-04-15 10:40 | 2.71032 | 101.69785 | 75 ft | 7 kts | 227° |
| 2026-04-15 10:40 | 2.71001 | 101.69740 | 75 ft | 8 kts | 242° |
| 2026-04-15 10:41 | 2.70973 | 101.69675 | 75 ft | 6 kts | 278° |
| 2026-04-15 10:41 | 2.71001 | 101.69643 | 75 ft | 6 kts | 321° |
| 2026-04-15 10:41 | 2.71101 | 101.69573 | 75 ft | 45 kts | 326° |
| 2026-04-15 10:41 | 2.71367 | 101.69393 | 75 ft | 92 kts | 326° |
| 2026-04-15 10:42 | 2.72078 | 101.68919 | 76 ft | 152 kts | 325° |
| 2026-04-15 10:42 | 2.73078 | 101.68236 | 268 ft | 184 kts | 325° |
| 2026-04-15 10:42 | 2.74153 | 101.67523 | 920 ft | 184 kts | 326° |
| 2026-04-15 10:42 | 2.75203 | 101.66836 | 1637 ft | 181 kts | 326° |
| 2026-04-15 10:43 | 2.76071 | 101.65977 | 2104 ft | 177 kts | 292° |
| 2026-04-15 10:43 | 2.76202 | 101.64352 | 2570 ft | 178 kts | 269° |
| 2026-04-15 10:43 | 2.76183 | 101.63112 | 2936 ft | 179 kts | 269° |
| 2026-04-15 10:43 | 2.76183 | 101.62298 | 3178 ft | 179 kts | 270° |
| 2026-04-15 10:44 | 2.76196 | 101.61011 | 3428 ft | 189 kts | 270° |
| 2026-04-15 10:44 | 2.76222 | 101.59663 | 3656 ft | 200 kts | 271° |
| 2026-04-15 10:44 | 2.76255 | 101.58225 | 3893 ft | 213 kts | 271° |
| 2026-04-15 10:44 | 2.76315 | 101.56688 | 4137 ft | 226 kts | 275° |
| 2026-04-15 10:45 | 2.76658 | 101.55085 | 4309 ft | 246 kts | 289° |
| 2026-04-15 10:45 | 2.77550 | 101.52914 | 4763 ft | 263 kts | 293° |
| 2026-04-15 10:45 | 2.78053 | 101.51780 | 5088 ft | 268 kts | 294° |
| 2026-04-15 10:45 | 2.79082 | 101.49455 | 5728 ft | 280 kts | 294° |
| 2026-04-15 10:46 | 2.79603 | 101.48270 | 6157 ft | 282 kts | 294° |
| 2026-04-15 10:46 | 2.80397 | 101.46450 | 6804 ft | 285 kts | 294° |
| 2026-04-15 10:46 | 2.81455 | 101.44022 | 7666 ft | 288 kts | 293° |
| 2026-04-15 10:46 | 2.81986 | 101.42802 | 8079 ft | 289 kts | 293° |
| 2026-04-15 10:47 | 2.83061 | 101.40313 | 8894 ft | 293 kts | 293° |
| 2026-04-15 10:47 | 2.83881 | 101.38441 | 9482 ft | 296 kts | 296° |
| 2026-04-15 10:47 | 2.84541 | 101.37256 | 9843 ft | 298 kts | 302° |
| 2026-04-15 10:47 | 2.85813 | 101.35604 | 10355 ft | 302 kts | 312° |
| 2026-04-15 10:48 | 2.87849 | 101.33521 | 10706 ft | 321 kts | 315° |
| 2026-04-15 10:48 | 2.89476 | 101.31918 | 10963 ft | 335 kts | 315° |
| 2026-04-15 10:48 | 2.91160 | 101.30258 | 11302 ft | 344 kts | 315° |
| 2026-04-15 10:48 | 2.92293 | 101.29135 | 11632 ft | 347 kts | 315° |
| 2026-04-15 10:49 | 2.94014 | 101.27426 | 12188 ft | 348 kts | 315° |
| 2026-04-15 10:49 | 2.96297 | 101.25151 | 12899 ft | 351 kts | 314° |
| 2026-04-15 10:49 | 2.97464 | 101.23984 | 13248 ft | 353 kts | 314° |
| 2026-04-15 10:49 | 2.99771 | 101.21674 | 13895 ft | 357 kts | 314° |
| 2026-04-15 10:50 | 3.01533 | 101.19907 | 14352 ft | 360 kts | 315° |
| 2026-04-15 10:50 | 3.03315 | 101.18121 | 14821 ft | 363 kts | 315° |
| 2026-04-15 10:50 | 3.04506 | 101.16928 | 15115 ft | 365 kts | 315° |
| 2026-04-15 10:50 | 3.06937 | 101.14494 | 15707 ft | 369 kts | 316° |
| 2026-04-15 10:51 | 3.08744 | 101.12685 | 16131 ft | 372 kts | 316° |
| 2026-04-15 10:51 | 3.10595 | 101.10832 | 16572 ft | 375 kts | 316° |
| 2026-04-15 10:51 | 3.11817 | 101.09609 | 16861 ft | 376 kts | 316° |
| 2026-04-15 10:51 | 3.13667 | 101.07756 | 17281 ft | 379 kts | 316° |
| 2026-04-15 10:52 | 3.15563 | 101.05857 | 17699 ft | 381 kts | 316° |
| 2026-04-15 10:52 | 3.18087 | 101.03330 | 18245 ft | 384 kts | 316° |
| 2026-04-15 10:52 | 3.19346 | 101.02071 | 18500 ft | 385 kts | 316° |
| 2026-04-15 10:52 | 3.21262 | 101.00178 | 18875 ft | 388 kts | 319° |
| 2026-04-15 10:53 | 3.24329 | 100.98374 | 19300 ft | 388 kts | 343° |
| 2026-04-15 10:53 | 3.26101 | 100.97992 | 19544 ft | 388 kts | 354° |
| 2026-04-15 10:53 | 3.29719 | 100.97937 | 20019 ft | 390 kts | 1° |
| 2026-04-15 10:53 | 3.32455 | 100.97977 | 20324 ft | 394 kts | 1° |
| 2026-04-15 10:54 | 3.34296 | 100.98001 | 20531 ft | 396 kts | 1° |
| 2026-04-15 10:54 | 3.37075 | 100.98029 | 20839 ft | 398 kts | 1° |
| 2026-04-15 10:54 | 3.40787 | 100.98055 | 21250 ft | 401 kts | 0° |
| 2026-04-15 10:54 | 3.42666 | 100.98064 | 21448 ft | 403 kts | 0° |
| 2026-04-15 10:55 | 3.45483 | 100.98077 | 21732 ft | 406 kts | 0° |
| 2026-04-15 10:55 | 3.49275 | 100.98090 | 22131 ft | 408 kts | 0° |
| 2026-04-15 10:55 | 3.52093 | 100.98098 | 22420 ft | 410 kts | 0° |
| 2026-04-15 10:55 | 3.54031 | 100.98103 | 22610 ft | 411 kts | 0° |
| 2026-04-15 10:56 | 3.56896 | 100.98111 | 22879 ft | 414 kts | 0° |
| 2026-04-15 10:56 | 3.59812 | 100.98119 | 23167 ft | 415 kts | 0° |
| 2026-04-15 10:56 | 3.62719 | 100.98128 | 23475 ft | 416 kts | 0° |
| 2026-04-15 10:56 | 3.66562 | 100.97835 | 23812 ft | 419 kts | 349° |
| 2026-04-15 10:57 | 3.69419 | 100.97108 | 24078 ft | 421 kts | 341° |
| 2026-04-15 10:57 | 3.74841 | 100.94815 | 24610 ft | 424 kts | 335° |
| 2026-04-15 10:57 | 3.76654 | 100.93993 | 24803 ft | 424 kts | 335° |
| 2026-04-15 10:58 | 3.80236 | 100.92374 | 25234 ft | 424 kts | 335° |
| 2026-04-15 10:58 | 3.82024 | 100.91569 | 25446 ft | 423 kts | 335° |
| 2026-04-15 10:58 | 3.85636 | 100.89951 | 25891 ft | 423 kts | 335° |
| 2026-04-15 10:58 | 3.88321 | 100.88752 | 26222 ft | 422 kts | 335° |
| 2026-04-15 10:59 | 3.90110 | 100.87954 | 26418 ft | 422 kts | 335° |
| 2026-04-15 10:59 | 3.93727 | 100.86343 | 26745 ft | 425 kts | 335° |
| 2026-04-15 10:59 | 3.95520 | 100.85544 | 26914 ft | 425 kts | 335° |
| 2026-04-15 10:59 | 3.98229 | 100.84337 | 27179 ft | 426 kts | 335° |
| 2026-04-15 11:00 | 4.01868 | 100.82715 | 27541 ft | 427 kts | 335° |
| 2026-04-15 11:00 | 4.03659 | 100.81917 | 27713 ft | 428 kts | 335° |
| 2026-04-15 11:00 | 4.06393 | 100.80698 | 27814 ft | 430 kts | 335° |
| 2026-04-15 11:00 | 4.09140 | 100.79472 | 27817 ft | 430 kts | 335° |
| 2026-04-15 11:01 | 4.12778 | 100.77850 | 27822 ft | 430 kts | 335° |
| 2026-04-15 11:01 | 4.14630 | 100.77023 | 27824 ft | 429 kts | 335° |
| 2026-04-15 11:01 | 4.18275 | 100.75399 | 27823 ft | 430 kts | 335° |
| 2026-04-15 11:01 | 4.21023 | 100.74170 | 27821 ft | 430 kts | 335° |
| 2026-04-15 11:02 | 4.22855 | 100.73350 | 27818 ft | 430 kts | 335° |
| 2026-04-15 11:02 | 4.26520 | 100.71705 | 27817 ft | 431 kts | 335° |
| 2026-04-15 11:02 | 4.29247 | 100.70480 | 27819 ft | 431 kts | 335° |
| 2026-04-15 11:02 | 4.31994 | 100.69247 | 27823 ft | 430 kts | 335° |
| 2026-04-15 11:03 | 4.33804 | 100.68433 | 27826 ft | 430 kts | 335° |
| 2026-04-15 11:03 | 4.37453 | 100.66793 | 27829 ft | 430 kts | 335° |
| 2026-04-15 11:03 | 4.39303 | 100.65963 | 27830 ft | 429 kts | 335° |
| 2026-04-15 11:03 | 4.42926 | 100.64337 | 27830 ft | 429 kts | 335° |
| 2026-04-15 11:04 | 4.45690 | 100.63121 | 27831 ft | 429 kts | 336° |
| 2026-04-15 11:04 | 4.48416 | 100.61959 | 27832 ft | 429 kts | 336° |
| 2026-04-15 11:04 | 4.51204 | 100.60778 | 27831 ft | 429 kts | 336° |
| 2026-04-15 11:04 | 4.53040 | 100.59999 | 27831 ft | 429 kts | 336° |
| 2026-04-15 11:05 | 4.55802 | 100.58824 | 27832 ft | 429 kts | 336° |
| 2026-04-15 11:05 | 4.59475 | 100.57259 | 27834 ft | 428 kts | 336° |
| 2026-04-15 11:05 | 4.61307 | 100.56476 | 27833 ft | 428 kts | 336° |
| 2026-04-15 11:05 | 4.64066 | 100.55297 | 27831 ft | 428 kts | 336° |
| 2026-04-15 11:06 | 4.67711 | 100.53739 | 27833 ft | 427 kts | 336° |
| 2026-04-15 11:06 | 4.69554 | 100.52950 | 27833 ft | 427 kts | 336° |
| 2026-04-15 11:06 | 4.72275 | 100.51784 | 27832 ft | 426 kts | 336° |
| 2026-04-15 11:06 | 4.75945 | 100.50213 | 27834 ft | 426 kts | 336° |
| 2026-04-15 11:07 | 4.78675 | 100.49043 | 27833 ft | 427 kts | 336° |
| 2026-04-15 11:07 | 4.81414 | 100.47872 | 27833 ft | 427 kts | 336° |
| 2026-04-15 11:07 | 4.83248 | 100.47079 | 27833 ft | 426 kts | 335° |
| 2026-04-15 11:07 | 4.85963 | 100.45833 | 27837 ft | 426 kts | 334° |
| 2026-04-15 11:08 | 4.89520 | 100.44157 | 27839 ft | 425 kts | 333° |
| 2026-04-15 11:08 | 4.91313 | 100.43310 | 27840 ft | 425 kts | 333° |
| 2026-04-15 11:08 | 4.94898 | 100.41621 | 27804 ft | 425 kts | 334° |
| 2026-04-15 11:08 | 4.97581 | 100.40360 | 27559 ft | 425 kts | 333° |
| 2026-04-15 11:09 | 5.00271 | 100.39096 | 27312 ft | 423 kts | 334° |
| 2026-04-15 11:09 | 5.02036 | 100.38268 | 27105 ft | 422 kts | 334° |
| 2026-04-15 11:09 | 5.04732 | 100.37005 | 26615 ft | 420 kts | 334° |
| 2026-04-15 11:09 | 5.07368 | 100.35767 | 25946 ft | 422 kts | 334° |
| 2026-04-15 11:10 | 5.10954 | 100.34085 | 24899 ft | 427 kts | 334° |
| 2026-04-15 11:10 | 5.13671 | 100.32810 | 24226 ft | 428 kts | 334° |
| 2026-04-15 11:10 | 5.15459 | 100.31972 | 23786 ft | 428 kts | 334° |
| 2026-04-15 11:10 | 5.18151 | 100.30708 | 23137 ft | 428 kts | 334° |
| 2026-04-15 11:11 | 5.20847 | 100.29443 | 22568 ft | 425 kts | 334° |
| 2026-04-15 11:11 | 5.24413 | 100.27769 | 21896 ft | 420 kts | 334° |
| 2026-04-15 11:11 | 5.26175 | 100.26942 | 21568 ft | 418 kts | 335° |
| 2026-04-15 11:11 | 5.29683 | 100.25289 | 20904 ft | 415 kts | 335° |
| 2026-04-15 11:12 | 5.32307 | 100.24037 | 20403 ft | 412 kts | 335° |
| 2026-04-15 11:12 | 5.34049 | 100.23205 | 20074 ft | 410 kts | 335° |
| 2026-04-15 11:12 | 5.37458 | 100.21572 | 19425 ft | 407 kts | 335° |
| 2026-04-15 11:12 | 5.40008 | 100.20351 | 18939 ft | 404 kts | 335° |
| 2026-04-15 11:13 | 5.41704 | 100.19539 | 18613 ft | 402 kts | 335° |
| 2026-04-15 11:13 | 5.44262 | 100.18313 | 18119 ft | 400 kts | 335° |
| 2026-04-15 11:13 | 5.46742 | 100.17123 | 17634 ft | 398 kts | 335° |
| 2026-04-15 11:13 | 5.50078 | 100.15527 | 16985 ft | 394 kts | 335° |
| 2026-04-15 11:14 | 5.51722 | 100.14741 | 16672 ft | 393 kts | 335° |
| 2026-04-15 11:14 | 5.55009 | 100.13168 | 16031 ft | 390 kts | 335° |
| 2026-04-15 11:14 | 5.57464 | 100.11993 | 15547 ft | 388 kts | 335° |
| 2026-04-15 11:14 | 5.59895 | 100.10826 | 15062 ft | 386 kts | 335° |
| 2026-04-15 11:15 | 5.61520 | 100.10047 | 14741 ft | 384 kts | 335° |
| 2026-04-15 11:15 | 5.64717 | 100.08512 | 14098 ft | 382 kts | 335° |
| 2026-04-15 11:15 | 5.67116 | 100.07362 | 13617 ft | 379 kts | 335° |
| 2026-04-15 11:15 | 5.69505 | 100.06216 | 13133 ft | 377 kts | 335° |
| 2026-04-15 11:16 | 5.71869 | 100.05084 | 12651 ft | 375 kts | 335° |
| 2026-04-15 11:16 | 5.74229 | 100.03953 | 12171 ft | 373 kts | 335° |
| 2026-04-15 11:16 | 5.75787 | 100.03207 | 11859 ft | 371 kts | 335° |
| 2026-04-15 11:16 | 5.78901 | 100.01717 | 11232 ft | 365 kts | 335° |
| 2026-04-15 11:17 | 5.81159 | 100.00635 | 10768 ft | 356 kts | 335° |
| 2026-04-15 11:17 | 5.82648 | 99.99920 | 10522 ft | 348 kts | 335° |
| 2026-04-15 11:17 | 5.84764 | 99.98903 | 10371 ft | 329 kts | 335° |
| 2026-04-15 11:17 | 5.86816 | 99.97916 | 10226 ft | 314 kts | 335° |
| 2026-04-15 11:18 | 5.89390 | 99.96680 | 10031 ft | 301 kts | 335° |
| 2026-04-15 11:18 | 5.90638 | 99.96081 | 9806 ft | 300 kts | 335° |
| 2026-04-15 11:18 | 5.92545 | 99.95167 | 9415 ft | 301 kts | 335° |
| 2026-04-15 11:18 | 5.95014 | 99.93884 | 8896 ft | 302 kts | 325° |
| 2026-04-15 11:19 | 5.96532 | 99.92433 | 8521 ft | 301 kts | 307° |
| 2026-04-15 11:19 | 5.97689 | 99.90664 | 8162 ft | 300 kts | 302° |
| 2026-04-15 11:19 | 5.98413 | 99.89463 | 7911 ft | 300 kts | 301° |
| 2026-04-15 11:19 | 5.99838 | 99.87082 | 7411 ft | 298 kts | 301° |
| 2026-04-15 11:20 | 6.00902 | 99.85319 | 7067 ft | 292 kts | 302° |
| 2026-04-15 11:20 | 6.01954 | 99.83587 | 6673 ft | 287 kts | 302° |
| 2026-04-15 11:20 | 6.02653 | 99.82442 | 6424 ft | 284 kts | 302° |
| 2026-04-15 11:20 | 6.04018 | 99.80214 | 5946 ft | 280 kts | 302° |
| 2026-04-15 11:21 | 6.05051 | 99.78534 | 5594 ft | 280 kts | 303° |
| 2026-04-15 11:21 | 6.06071 | 99.76876 | 5252 ft | 279 kts | 302° |
| 2026-04-15 11:21 | 6.07083 | 99.75231 | 4915 ft | 279 kts | 302° |
| 2026-04-15 11:21 | 6.08105 | 99.73570 | 4677 ft | 274 kts | 302° |
| 2026-04-15 11:22 | 6.08769 | 99.72489 | 4507 ft | 271 kts | 302° |
| 2026-04-15 11:22 | 6.09751 | 99.70892 | 4256 ft | 267 kts | 302° |
| 2026-04-15 11:22 | 6.10716 | 99.69321 | 3865 ft | 261 kts | 302° |
| 2026-04-15 11:22 | 6.11599 | 99.67787 | 3758 ft | 246 kts | 297° |
| 2026-04-15 11:23 | 6.12513 | 99.65739 | 3653 ft | 231 kts | 293° |
| 2026-04-15 11:23 | 6.12915 | 99.64762 | 3590 ft | 224 kts | 293° |
| 2026-04-15 11:23 | 6.13510 | 99.63313 | 3430 ft | 219 kts | 293° |
| 2026-04-15 11:23 | 6.14113 | 99.61914 | 3249 ft | 218 kts | 301° |
| 2026-04-15 11:24 | 6.15667 | 99.60705 | 2933 ft | 216 kts | 347° |
| 2026-04-15 11:24 | 6.17160 | 99.60782 | 2749 ft | 218 kts | 21° |
| 2026-04-15 11:24 | 6.18415 | 99.61690 | 2440 ft | 224 kts | 47° |
| 2026-04-15 11:24 | 6.19065 | 99.62483 | 2320 ft | 221 kts | 51° |
| 2026-04-15 11:25 | 6.20002 | 99.63651 | 2246 ft | 201 kts | 46° |
| 2026-04-15 11:25 | 6.20942 | 99.64542 | 2250 ft | 171 kts | 38° |
| 2026-04-15 11:25 | 6.22161 | 99.65469 | 2206 ft | 161 kts | 33° |
| 2026-04-15 11:25 | 6.23078 | 99.66106 | 2006 ft | 155 kts | 32° |
| 2026-04-15 11:26 | 6.23957 | 99.66708 | 1801 ft | 152 kts | 32° |
| 2026-04-15 11:26 | 6.24540 | 99.67107 | 1665 ft | 152 kts | 31° |
| 2026-04-15 11:26 | 6.25425 | 99.67704 | 1465 ft | 152 kts | 32° |
| 2026-04-15 11:26 | 6.26302 | 99.68303 | 1274 ft | 153 kts | 32° |
| 2026-04-15 11:27 | 6.27183 | 99.68900 | 1101 ft | 152 kts | 32° |
| 2026-04-15 11:27 | 6.28359 | 99.69705 | 845 ft | 151 kts | 32° |
| 2026-04-15 11:27 | 6.29235 | 99.70296 | 644 ft | 152 kts | 32° |
| 2026-04-15 11:27 | 6.30108 | 99.70892 | 454 ft | 151 kts | 33° |
| 2026-04-15 11:28 | 6.30971 | 99.71481 | 270 ft | 150 kts | 34° |
| 2026-04-15 11:28 | 6.31825 | 99.72080 | 94 ft | 151 kts | 35° |
| 2026-04-15 11:28 | 6.32401 | 99.72474 | 23 ft | 145 kts | 34° |
| 2026-04-15 11:28 | 6.33130 | 99.72966 | 21 ft | 101 kts | 34° |
| 2026-04-15 11:29 | 6.33576 | 99.73272 | 27 ft | 52 kts | 33° |
| 2026-04-15 11:29 | 6.33847 | 99.73457 | 30 ft | 24 kts | 34° |
| 2026-04-15 11:29 | 6.33907 | 99.73497 | 30 ft | 12 kts | 34° |
| 2026-04-15 11:29 | 6.33984 | 99.73525 | 30 ft | 12 kts | 338° |
| 2026-04-15 11:30 | 6.34028 | 99.73486 | 30 ft | 8 kts | 304° |
| 2026-04-15 11:30 | 6.34074 | 99.73417 | 30 ft | 9 kts | 303° |
| 2026-04-15 11:30 | 6.34096 | 99.73386 | 30 ft | 5 kts | 316° |
| 2026-04-15 11:30 | 6.34136 | 99.73363 | 30 ft | 4 kts | 327° |
| 2026-04-15 11:31 | 6.34152 | 99.73347 | 30 ft | 4 kts | 313° |
| 2026-04-15 11:31 | 6.34171 | 99.73321 | 30 ft | 0 kts | 304° |